sensor_id;sensor_type;location;lat;lon;timestamp;temperature;humidity
79467;SHT30;68933;49.726;9.226;2023-04-01T00:00:10;11.2;67
79467;SHT30;68933;49.726;9.226;2023-04-01T00:02:23;11.3;67
79467;SHT30;68933;49.726;9.226;2023-04-01T00:04:36;11.3;67
79467;SHT30;68933;49.726;9.226;2023-04-01T00:06:49;11.3;67
79467;SHT30;68933;49.726;9.226;2023-04-01T00:09:02;11.3;67
79467;SHT30;68933;49.726;9.226;2023-04-01T00:11:15;11.3;67
79467;SHT30;68933;49.726;9.226;2023-04-01T00:13:28;11.3;67
79467;SHT30;68933;49.726;9.226;2023-04-01T00:15:41;11.3;67
79467;SHT30;68933;49.726;9.226;2023-04-01T00:17:54;11.3;67
79467;SHT30;68933;49.726;9.226;2023-04-01T00:20:07;11.3;67
79467;SHT30;68933;49.726;9.226;2023-04-01T00:22:20;11.3;67
79467;SHT30;68933;49.726;9.226;2023-04-01T00:24:33;11.3;67
79467;SHT30;68933;49.726;9.226;2023-04-01T00:26:46;11.3;67
79467;SHT30;68933;49.726;9.226;2023-04-01T00:28:59;11.3;67
79467;SHT30;68933;49.726;9.226;2023-04-01T00:31:12;11.3;67
79467;SHT30;68933;49.726;9.226;2023-04-01T00:33:25;11.3;67
79467;SHT30;68933;49.726;9.226;2023-04-01T00:35:38;11.3;67
79467;SHT30;68933;49.726;9.226;2023-04-01T00:37:51;11.3;67
79467;SHT30;68933;49.726;9.226;2023-04-01T00:40:05;11.3;67
79467;SHT30;68933;49.726;9.226;2023-04-01T00:42:17;11.3;67
79467;SHT30;68933;49.726;9.226;2023-04-01T00:44:31;11.3;67
79467;SHT30;68933;49.726;9.226;2023-04-01T00:46:43;11.3;67
79467;SHT30;68933;49.726;9.226;2023-04-01T00:48:56;11.3;67
79467;SHT30;68933;49.726;9.226;2023-04-01T00:51:10;11.3;67
79467;SHT30;68933;49.726;9.226;2023-04-01T00:53:22;11.3;67
79467;SHT30;68933;49.726;9.226;2023-04-01T00:55:35;11.3;67
79467;SHT30;68933;49.726;9.226;2023-04-01T00:57:48;11.3;67
79467;SHT30;68933;49.726;9.226;2023-04-01T01:00:04;11.3;67
79467;SHT30;68933;49.726;9.226;2023-04-01T01:02:14;11.3;67
79467;SHT30;68933;49.726;9.226;2023-04-01T01:04:28;11.3;67
79467;SHT30;68933;49.726;9.226;2023-04-01T01:06:43;11.3;67
79467;SHT30;68933;49.726;9.226;2023-04-01T01:09:00;11.3;67
79467;SHT30;68933;49.726;9.226;2023-04-01T01:11:06;11.3;67
79467;SHT30;68933;49.726;9.226;2023-04-01T01:13:21;11.3;67
79467;SHT30;68933;49.726;9.226;2023-04-01T01:15:33;11.3;67
79467;SHT30;68933;49.726;9.226;2023-04-01T01:17:48;11.3;67
79467;SHT30;68933;49.726;9.226;2023-04-01T01:20:05;11.3;67
79467;SHT30;68933;49.726;9.226;2023-04-01T01:22:16;11.3;67
79467;SHT30;68933;49.726;9.226;2023-04-01T01:24:27;11.3;67
79467;SHT30;68933;49.726;9.226;2023-04-01T01:26:40;11.3;67
79467;SHT30;68933;49.726;9.226;2023-04-01T01:28:52;11.3;67
79467;SHT30;68933;49.726;9.226;2023-04-01T01:31:03;11.3;67
79467;SHT30;68933;49.726;9.226;2023-04-01T01:33:19;11.3;67
79467;SHT30;68933;49.726;9.226;2023-04-01T01:35:30;11.3;67
79467;SHT30;68933;49.726;9.226;2023-04-01T01:37:42;11.3;67
79467;SHT30;68933;49.726;9.226;2023-04-01T01:39:56;11.3;67
79467;SHT30;68933;49.726;9.226;2023-04-01T01:42:09;11.3;67
79467;SHT30;68933;49.726;9.226;2023-04-01T01:44:21;11.3;67
79467;SHT30;68933;49.726;9.226;2023-04-01T01:46:34;11.3;67
79467;SHT30;68933;49.726;9.226;2023-04-01T01:48:47;11.3;67
79467;SHT30;68933;49.726;9.226;2023-04-01T01:51:00;11.3;67
79467;SHT30;68933;49.726;9.226;2023-04-01T01:53:13;11.3;67
79467;SHT30;68933;49.726;9.226;2023-04-01T01:55:28;11.2;65
79467;SHT30;68933;49.726;9.226;2023-04-01T01:57:39;11.2;65
79467;SHT30;68933;49.726;9.226;2023-04-01T01:59:52;11.3;65
79467;SHT30;68933;49.726;9.226;2023-04-01T02:02:05;11.3;65
79467;SHT30;68933;49.726;9.226;2023-04-01T02:04:18;11.3;65
79467;SHT30;68933;49.726;9.226;2023-04-01T02:06:32;11.3;65
79467;SHT30;68933;49.726;9.226;2023-04-01T02:08:45;11.3;65
79467;SHT30;68933;49.726;9.226;2023-04-01T02:10:58;11.3;65
79467;SHT30;68933;49.726;9.226;2023-04-01T02:13:12;11.3;65
79467;SHT30;68933;49.726;9.226;2023-04-01T02:15:23;11.3;65
79467;SHT30;68933;49.726;9.226;2023-04-01T02:17:38;11.2;65
79467;SHT30;68933;49.726;9.226;2023-04-01T02:19:49;11.2;65
79467;SHT30;68933;49.726;9.226;2023-04-01T02:22:03;11.2;65
79467;SHT30;68933;49.726;9.226;2023-04-01T02:24:15;11.2;65
79467;SHT30;68933;49.726;9.226;2023-04-01T02:26:28;11.2;65
79467;SHT30;68933;49.726;9.226;2023-04-01T02:28:41;11.2;65
79467;SHT30;68933;49.726;9.226;2023-04-01T02:30:54;11.2;65
79467;SHT30;68933;49.726;9.226;2023-04-01T02:33:07;11.2;65
79467;SHT30;68933;49.726;9.226;2023-04-01T02:35:20;11.2;65
79467;SHT30;68933;49.726;9.226;2023-04-01T02:37:33;11.2;65
79467;SHT30;68933;49.726;9.226;2023-04-01T02:39:46;11.2;65
79467;SHT30;68933;49.726;9.226;2023-04-01T02:41:59;11.2;65
79467;SHT30;68933;49.726;9.226;2023-04-01T02:44:13;11.2;65
79467;SHT30;68933;49.726;9.226;2023-04-01T02:46:25;11.2;65
79467;SHT30;68933;49.726;9.226;2023-04-01T02:48:38;11.2;65
79467;SHT30;68933;49.726;9.226;2023-04-01T02:50:51;11.2;65
79467;SHT30;68933;49.726;9.226;2023-04-01T02:53:04;11.2;65
79467;SHT30;68933;49.726;9.226;2023-04-01T02:55:17;11.2;65
79467;SHT30;68933;49.726;9.226;2023-04-01T02:57:30;11.2;65
79467;SHT30;68933;49.726;9.226;2023-04-01T02:59:43;11.2;65
79467;SHT30;68933;49.726;9.226;2023-04-01T03:01:56;11.2;65
79467;SHT30;68933;49.726;9.226;2023-04-01T03:04:09;11.2;65
79467;SHT30;68933;49.726;9.226;2023-04-01T03:06:22;11.2;65
79467;SHT30;68933;49.726;9.226;2023-04-01T03:08:35;11.2;65
79467;SHT30;68933;49.726;9.226;2023-04-01T03:10:48;11.2;65
79467;SHT30;68933;49.726;9.226;2023-04-01T03:13:01;11.2;65
79467;SHT30;68933;49.726;9.226;2023-04-01T03:15:14;11.2;65
79467;SHT30;68933;49.726;9.226;2023-04-01T03:17:27;11.2;65
79467;SHT30;68933;49.726;9.226;2023-04-01T03:19:40;11.2;65
79467;SHT30;68933;49.726;9.226;2023-04-01T03:21:53;11.2;65
79467;SHT30;68933;49.726;9.226;2023-04-01T03:24:06;11.2;65
79467;SHT30;68933;49.726;9.226;2023-04-01T03:26:19;11.2;65
79467;SHT30;68933;49.726;9.226;2023-04-01T03:28:32;11.2;65
79467;SHT30;68933;49.726;9.226;2023-04-01T03:30:45;11.2;65
79467;SHT30;68933;49.726;9.226;2023-04-01T03:32:58;11.2;65
79467;SHT30;68933;49.726;9.226;2023-04-01T03:35:11;11.2;65
79467;SHT30;68933;49.726;9.226;2023-04-01T03:37:24;11.2;65
79467;SHT30;68933;49.726;9.226;2023-04-01T03:39:37;11.2;65
79467;SHT30;68933;49.726;9.226;2023-04-01T03:41:50;11.2;65
79467;SHT30;68933;49.726;9.226;2023-04-01T03:44:03;11.2;65
79467;SHT30;68933;49.726;9.226;2023-04-01T03:46:17;11.2;65
79467;SHT30;68933;49.726;9.226;2023-04-01T03:48:29;11.2;65
79467;SHT30;68933;49.726;9.226;2023-04-01T03:50:42;11.2;65
79467;SHT30;68933;49.726;9.226;2023-04-01T03:52:55;11.2;65
79467;SHT30;68933;49.726;9.226;2023-04-01T03:55:08;11.2;65
79467;SHT30;68933;49.726;9.226;2023-04-01T03:57:21;11.2;65
79467;SHT30;68933;49.726;9.226;2023-04-01T03:59:34;11.2;65
79467;SHT30;68933;49.726;9.226;2023-04-01T04:01:47;11.2;65
79467;SHT30;68933;49.726;9.226;2023-04-01T04:04:00;11.2;65
79467;SHT30;68933;49.726;9.226;2023-04-01T04:06:13;11.2;65
79467;SHT30;68933;49.726;9.226;2023-04-01T04:08:26;11.2;64
79467;SHT30;68933;49.726;9.226;2023-04-01T04:10:39;11.2;64
79467;SHT30;68933;49.726;9.226;2023-04-01T04:12:52;11.2;64
79467;SHT30;68933;49.726;9.226;2023-04-01T04:15:05;11.2;64
79467;SHT30;68933;49.726;9.226;2023-04-01T04:17:18;11.2;64
79467;SHT30;68933;49.726;9.226;2023-04-01T04:19:31;11.2;64
79467;SHT30;68933;49.726;9.226;2023-04-01T04:21:44;11.2;64
79467;SHT30;68933;49.726;9.226;2023-04-01T04:23:57;11.2;65
79467;SHT30;68933;49.726;9.226;2023-04-01T04:26:11;11.2;65
79467;SHT30;68933;49.726;9.226;2023-04-01T04:28:23;11.2;64
79467;SHT30;68933;49.726;9.226;2023-04-01T04:30:36;11.2;64
79467;SHT30;68933;49.726;9.226;2023-04-01T04:32:49;11.2;64
79467;SHT30;68933;49.726;9.226;2023-04-01T04:35:02;11.2;64
79467;SHT30;68933;49.726;9.226;2023-04-01T04:37:15;11.2;64
79467;SHT30;68933;49.726;9.226;2023-04-01T04:39:28;11.2;64
79467;SHT30;68933;49.726;9.226;2023-04-01T04:41:41;11.2;64
79467;SHT30;68933;49.726;9.226;2023-04-01T04:43:55;11.2;64
79467;SHT30;68933;49.726;9.226;2023-04-01T04:46:07;11.2;64
79467;SHT30;68933;49.726;9.226;2023-04-01T04:48:20;11.2;64
79467;SHT30;68933;49.726;9.226;2023-04-01T04:50:33;11.2;64
79467;SHT30;68933;49.726;9.226;2023-04-01T04:52:46;11.2;64
79467;SHT30;68933;49.726;9.226;2023-04-01T04:54:59;11.2;64
79467;SHT30;68933;49.726;9.226;2023-04-01T04:57:12;11.2;64
79467;SHT30;68933;49.726;9.226;2023-04-01T04:59:25;11.2;66
79467;SHT30;68933;49.726;9.226;2023-04-01T05:01:38;11.2;66
79467;SHT30;68933;49.726;9.226;2023-04-01T05:03:51;11.2;66
79467;SHT30;68933;49.726;9.226;2023-04-01T05:06:04;11.1;67
79467;SHT30;68933;49.726;9.226;2023-04-01T05:08:17;11.1;67
79467;SHT30;68933;49.726;9.226;2023-04-01T05:10:30;11.1;67
79467;SHT30;68933;49.726;9.226;2023-04-01T05:12:43;11.1;67
79467;SHT30;68933;49.726;9.226;2023-04-01T05:14:56;11;68
79467;SHT30;68933;49.726;9.226;2023-04-01T05:17:09;11;68
79467;SHT30;68933;49.726;9.226;2023-04-01T05:19:22;11;68
79467;SHT30;68933;49.726;9.226;2023-04-01T05:21:35;10.9;69
79467;SHT30;68933;49.726;9.226;2023-04-01T05:23:48;10.9;69
79467;SHT30;68933;49.726;9.226;2023-04-01T05:26:02;10.8;70
79467;SHT30;68933;49.726;9.226;2023-04-01T05:28:14;10.8;70
79467;SHT30;68933;49.726;9.226;2023-04-01T05:30:27;10.8;71
79467;SHT30;68933;49.726;9.226;2023-04-01T05:32:40;10.8;71
79467;SHT30;68933;49.726;9.226;2023-04-01T05:34:53;10.8;71
79467;SHT30;68933;49.726;9.226;2023-04-01T05:37:06;10.7;71
79467;SHT30;68933;49.726;9.226;2023-04-01T05:39:19;10.7;71
79467;SHT30;68933;49.726;9.226;2023-04-01T05:41:34;10.7;71
79467;SHT30;68933;49.726;9.226;2023-04-01T05:43:45;10.7;71
79467;SHT30;68933;49.726;9.226;2023-04-01T05:45:58;10.7;71
79467;SHT30;68933;49.726;9.226;2023-04-01T05:48:11;10.6;72
79467;SHT30;68933;49.726;9.226;2023-04-01T05:50:24;10.6;72
79467;SHT30;68933;49.726;9.226;2023-04-01T05:52:37;10.6;72
79467;SHT30;68933;49.726;9.226;2023-04-01T05:54:50;10.6;72
79467;SHT30;68933;49.726;9.226;2023-04-01T05:57:03;10.5;72
79467;SHT30;68933;49.726;9.226;2023-04-01T05:59:16;10.5;72
79467;SHT30;68933;49.726;9.226;2023-04-01T06:01:29;10.5;72
79467;SHT30;68933;49.726;9.226;2023-04-01T06:03:42;10.5;72
79467;SHT30;68933;49.726;9.226;2023-04-01T06:05:55;10.5;72
79467;SHT30;68933;49.726;9.226;2023-04-01T06:08:10;10.5;74
79467;SHT30;68933;49.726;9.226;2023-04-01T06:10:21;10.5;74
79467;SHT30;68933;49.726;9.226;2023-04-01T06:12:40;10.5;74
79467;SHT30;68933;49.726;9.226;2023-04-01T06:14:48;10.5;74
79467;SHT30;68933;49.726;9.226;2023-04-01T06:17:04;10.5;74
79467;SHT30;68933;49.726;9.226;2023-04-01T06:19:17;10.5;74
79467;SHT30;68933;49.726;9.226;2023-04-01T06:21:30;10.5;74
79467;SHT30;68933;49.726;9.226;2023-04-01T06:23:44;10.5;74
79467;SHT30;68933;49.726;9.226;2023-04-01T06:25:57;10.5;74
79467;SHT30;68933;49.726;9.226;2023-04-01T06:28:22;10.5;74
79467;SHT30;68933;49.726;9.226;2023-04-01T06:30:35;10.5;74
79467;SHT30;68933;49.726;9.226;2023-04-01T06:32:37;10.5;75
79467;SHT30;68933;49.726;9.226;2023-04-01T06:34:48;10.5;75
79467;SHT30;68933;49.726;9.226;2023-04-01T06:37:09;10.5;75
79467;SHT30;68933;49.726;9.226;2023-04-01T06:39:13;10.5;75
79467;SHT30;68933;49.726;9.226;2023-04-01T06:41:30;10.5;75
79467;SHT30;68933;49.726;9.226;2023-04-01T06:43:38;10.6;75
79467;SHT30;68933;49.726;9.226;2023-04-01T06:45:50;10.6;75
79467;SHT30;68933;49.726;9.226;2023-04-01T06:48:06;10.6;75
79467;SHT30;68933;49.726;9.226;2023-04-01T06:50:17;10.6;75
79467;SHT30;68933;49.726;9.226;2023-04-01T06:52:31;10.6;75
79467;SHT30;68933;49.726;9.226;2023-04-01T06:54:42;10.6;75
79467;SHT30;68933;49.726;9.226;2023-04-01T06:56:54;10.6;75
79467;SHT30;68933;49.726;9.226;2023-04-01T06:59:09;10.7;75
79467;SHT30;68933;49.726;9.226;2023-04-01T07:01:21;10.7;75
79467;SHT30;68933;49.726;9.226;2023-04-01T07:03:34;10.8;75
79467;SHT30;68933;49.726;9.226;2023-04-01T07:05:46;10.8;75
79467;SHT30;68933;49.726;9.226;2023-04-01T07:08:00;10.8;73
79467;SHT30;68933;49.726;9.226;2023-04-01T07:10:13;10.8;73
79467;SHT30;68933;49.726;9.226;2023-04-01T07:12:28;10.8;75
79467;SHT30;68933;49.726;9.226;2023-04-01T07:14:39;10.8;75
79467;SHT30;68933;49.726;9.226;2023-04-01T07:16:51;10.9;75
79467;SHT30;68933;49.726;9.226;2023-04-01T07:19:05;10.9;75
79467;SHT30;68933;49.726;9.226;2023-04-01T07:21:22;10.9;75
79467;SHT30;68933;49.726;9.226;2023-04-01T07:23:31;10.9;73
79467;SHT30;68933;49.726;9.226;2023-04-01T07:25:44;10.9;73
79467;SHT30;68933;49.726;9.226;2023-04-01T07:27:56;10.9;73
79467;SHT30;68933;49.726;9.226;2023-04-01T07:30:13;10.9;73
79467;SHT30;68933;49.726;9.226;2023-04-01T07:32:25;11;73
79467;SHT30;68933;49.726;9.226;2023-04-01T07:34:36;11;73
79467;SHT30;68933;49.726;9.226;2023-04-01T07:36:48;11;75
79467;SHT30;68933;49.726;9.226;2023-04-01T07:39:04;11;75
79467;SHT30;68933;49.726;9.226;2023-04-01T07:41:16;11.1;73
79467;SHT30;68933;49.726;9.226;2023-04-01T07:43:32;11.1;73
79467;SHT30;68933;49.726;9.226;2023-04-01T07:45:41;11.1;73
79467;SHT30;68933;49.726;9.226;2023-04-01T07:47:57;11.1;73
79467;SHT30;68933;49.726;9.226;2023-04-01T07:50:10;11.1;73
79467;SHT30;68933;49.726;9.226;2023-04-01T07:52:20;11.1;72
79467;SHT30;68933;49.726;9.226;2023-04-01T07:54:35;11.1;72
79467;SHT30;68933;49.726;9.226;2023-04-01T07:56:46;11.1;73
79467;SHT30;68933;49.726;9.226;2023-04-01T07:59:00;11.1;73
79467;SHT30;68933;49.726;9.226;2023-04-01T08:01:12;11.1;73
79467;SHT30;68933;49.726;9.226;2023-04-01T08:03:29;11.1;73
79467;SHT30;68933;49.726;9.226;2023-04-01T08:05:40;11.1;73
79467;SHT30;68933;49.726;9.226;2023-04-01T08:07:51;11.1;73
79467;SHT30;68933;49.726;9.226;2023-04-01T08:10:04;11.1;73
79467;SHT30;68933;49.726;9.226;2023-04-01T08:12:20;11.1;73
79467;SHT30;68933;49.726;9.226;2023-04-01T08:14:30;11.2;73
79467;SHT30;68933;49.726;9.226;2023-04-01T08:16:44;11.2;73
79467;SHT30;68933;49.726;9.226;2023-04-01T08:18:58;11.2;75
79467;SHT30;68933;49.726;9.226;2023-04-01T08:21:10;11.2;75
79467;SHT30;68933;49.726;9.226;2023-04-01T08:23:22;11.2;75
79467;SHT30;68933;49.726;9.226;2023-04-01T08:25:34;11.3;73
79467;SHT30;68933;49.726;9.226;2023-04-01T08:27:48;11.3;73
79467;SHT30;68933;49.726;9.226;2023-04-01T08:30:02;11.4;73
79467;SHT30;68933;49.726;9.226;2023-04-01T08:32:15;11.4;73
79467;SHT30;68933;49.726;9.226;2023-04-01T08:34:27;11.4;73
79467;SHT30;68933;49.726;9.226;2023-04-01T08:36:40;11.5;73
79467;SHT30;68933;49.726;9.226;2023-04-01T08:38:53;11.5;73
79467;SHT30;68933;49.726;9.226;2023-04-01T08:41:08;11.5;73
79467;SHT30;68933;49.726;9.226;2023-04-01T08:43:21;11.5;73
79467;SHT30;68933;49.726;9.226;2023-04-01T08:45:38;11.6;73
79467;SHT30;68933;49.726;9.226;2023-04-01T08:47:54;11.6;73
79467;SHT30;68933;49.726;9.226;2023-04-01T08:50:02;11.6;73
79467;SHT30;68933;49.726;9.226;2023-04-01T08:52:14;11.6;73
79467;SHT30;68933;49.726;9.226;2023-04-01T08:54:27;11.6;73
79467;SHT30;68933;49.726;9.226;2023-04-01T08:56:37;11.6;73
79467;SHT30;68933;49.726;9.226;2023-04-01T08:58:54;11.6;73
79467;SHT30;68933;49.726;9.226;2023-04-01T09:01:08;11.6;73
79467;SHT30;68933;49.726;9.226;2023-04-01T09:03:26;11.6;73
79467;SHT30;68933;49.726;9.226;2023-04-01T09:05:35;11.6;73
79467;SHT30;68933;49.726;9.226;2023-04-01T09:07:43;11.6;73
79467;SHT30;68933;49.726;9.226;2023-04-01T09:10:00;11.6;73
79467;SHT30;68933;49.726;9.226;2023-04-01T09:12:14;11.6;73
79467;SHT30;68933;49.726;9.226;2023-04-01T09:14:27;11.6;73
79467;SHT30;68933;49.726;9.226;2023-04-01T09:16:38;11.6;73
79467;SHT30;68933;49.726;9.226;2023-04-01T09:18:54;11.6;73
79467;SHT30;68933;49.726;9.226;2023-04-01T09:21:04;11.6;73
79467;SHT30;68933;49.726;9.226;2023-04-01T09:23:17;11.6;73
79467;SHT30;68933;49.726;9.226;2023-04-01T09:25:30;11.6;73
79467;SHT30;68933;49.726;9.226;2023-04-01T09:27:40;11.7;73
79467;SHT30;68933;49.726;9.226;2023-04-01T09:29:58;11.7;73
79467;SHT30;68933;49.726;9.226;2023-04-01T09:32:10;11.8;75
79467;SHT30;68933;49.726;9.226;2023-04-01T09:34:21;11.8;75
79467;SHT30;68933;49.726;9.226;2023-04-01T09:36:34;11.8;75
79467;SHT30;68933;49.726;9.226;2023-04-01T09:38:47;11.8;75
79467;SHT30;68933;49.726;9.226;2023-04-01T09:40:57;11.8;75
79467;SHT30;68933;49.726;9.226;2023-04-01T09:43:16;11.9;76
79467;SHT30;68933;49.726;9.226;2023-04-01T09:45:27;11.9;76
79467;SHT30;68933;49.726;9.226;2023-04-01T09:47:41;12.1;75
79467;SHT30;68933;49.726;9.226;2023-04-01T09:49:55;12.1;75
79467;SHT30;68933;49.726;9.226;2023-04-01T09:52:05;12.1;75
79467;SHT30;68933;49.726;9.226;2023-04-01T09:54:18;12.1;76
79467;SHT30;68933;49.726;9.226;2023-04-01T09:56:35;12.1;76
79467;SHT30;68933;49.726;9.226;2023-04-01T09:58:45;12.2;75
79467;SHT30;68933;49.726;9.226;2023-04-01T10:01:01;12.2;75
79467;SHT30;68933;49.726;9.226;2023-04-01T10:03:45;12.2;75
79467;SHT30;68933;49.726;9.226;2023-04-01T10:05:33;12.2;75
79467;SHT30;68933;49.726;9.226;2023-04-01T10:07:42;12.2;75
79467;SHT30;68933;49.726;9.226;2023-04-01T10:10:21;12.2;75
79467;SHT30;68933;49.726;9.226;2023-04-01T10:12:02;12.2;75
79467;SHT30;68933;49.726;9.226;2023-04-01T10:14:18;12.3;75
79467;SHT30;68933;49.726;9.226;2023-04-01T10:16:26;12.3;75
79467;SHT30;68933;49.726;9.226;2023-04-01T10:21:25;12.3;75
79467;SHT30;68933;49.726;9.226;2023-04-01T10:23:21;12.4;75
79467;SHT30;68933;49.726;9.226;2023-04-01T10:25:18;12.4;75
79467;SHT30;68933;49.726;9.226;2023-04-01T10:27:34;12.3;75
79467;SHT30;68933;49.726;9.226;2023-04-01T10:29:48;12.3;75
79467;SHT30;68933;49.726;9.226;2023-04-01T10:32:00;12.3;75
79467;SHT30;68933;49.726;9.226;2023-04-01T10:34:13;12.3;75
79467;SHT30;68933;49.726;9.226;2023-04-01T10:36:31;12.3;75
79467;SHT30;68933;49.726;9.226;2023-04-01T10:38:47;12.3;75
79467;SHT30;68933;49.726;9.226;2023-04-01T10:40:52;12.3;75
79467;SHT30;68933;49.726;9.226;2023-04-01T10:43:05;12.3;75
79467;SHT30;68933;49.726;9.226;2023-04-01T10:45:20;12.3;75
79467;SHT30;68933;49.726;9.226;2023-04-01T10:47:50;12.3;75
79467;SHT30;68933;49.726;9.226;2023-04-01T10:49:47;12.3;75
79467;SHT30;68933;49.726;9.226;2023-04-01T10:51:59;12.3;76
79467;SHT30;68933;49.726;9.226;2023-04-01T10:54:24;12.3;76
79467;SHT30;68933;49.726;9.226;2023-04-01T10:56:34;12.3;76
79467;SHT30;68933;49.726;9.226;2023-04-01T10:58:37;12.3;76
79467;SHT30;68933;49.726;9.226;2023-04-01T11:00:53;12.3;76
79467;SHT30;68933;49.726;9.226;2023-04-01T11:04:03;12.3;76
79467;SHT30;68933;49.726;9.226;2023-04-01T11:05:46;12.3;76
79467;SHT30;68933;49.726;9.226;2023-04-01T11:07:33;12.3;76
79467;SHT30;68933;49.726;9.226;2023-04-01T11:09:50;12.3;76
79467;SHT30;68933;49.726;9.226;2023-04-01T11:11:55;12.4;76
79467;SHT30;68933;49.726;9.226;2023-04-01T11:14:38;12.4;76
79467;SHT30;68933;49.726;9.226;2023-04-01T11:16:35;12.4;76
79467;SHT30;68933;49.726;9.226;2023-04-01T11:20:45;12.4;76
79467;SHT30;68933;49.726;9.226;2023-04-01T11:22:58;12.6;76
79467;SHT30;68933;49.726;9.226;2023-04-01T11:26:08;12.6;76
79467;SHT30;68933;49.726;9.226;2023-04-01T11:27:24;12.6;76
79467;SHT30;68933;49.726;9.226;2023-04-01T11:29:36;12.6;76
79467;SHT30;68933;49.726;9.226;2023-04-01T11:31:50;12.6;76
79467;SHT30;68933;49.726;9.226;2023-04-01T11:34:01;12.6;75
79467;SHT30;68933;49.726;9.226;2023-04-01T11:36:16;12.6;75
79467;SHT30;68933;49.726;9.226;2023-04-01T11:38:29;12.6;75
79467;SHT30;68933;49.726;9.226;2023-04-01T11:40:40;12.6;75
79467;SHT30;68933;49.726;9.226;2023-04-01T11:42:52;12.6;75
79467;SHT30;68933;49.726;9.226;2023-04-01T11:45:09;12.6;75
79467;SHT30;68933;49.726;9.226;2023-04-01T11:47:21;12.6;75
79467;SHT30;68933;49.726;9.226;2023-04-01T11:49:36;12.7;76
79467;SHT30;68933;49.726;9.226;2023-04-01T11:51:49;12.7;76
79467;SHT30;68933;49.726;9.226;2023-04-01T11:53:57;12.7;74
79467;SHT30;68933;49.726;9.226;2023-04-01T11:56:12;12.7;74
79467;SHT30;68933;49.726;9.226;2023-04-01T11:58:27;12.7;74
79467;SHT30;68933;49.726;9.226;2023-04-01T12:00:42;12.6;74
79467;SHT30;68933;49.726;9.226;2023-04-01T12:02:51;12.6;74
79467;SHT30;68933;49.726;9.226;2023-04-01T12:05:08;12.6;75
79467;SHT30;68933;49.726;9.226;2023-04-01T12:07:17;12.6;75
79467;SHT30;68933;49.726;9.226;2023-04-01T12:09:29;12.5;75
79467;SHT30;68933;49.726;9.226;2023-04-01T12:11:41;12.5;75
79467;SHT30;68933;49.726;9.226;2023-04-01T12:13:53;12.5;75
79467;SHT30;68933;49.726;9.226;2023-04-01T12:16:10;12.5;75
79467;SHT30;68933;49.726;9.226;2023-04-01T12:18:20;12.5;75
79467;SHT30;68933;49.726;9.226;2023-04-01T12:20:36;12.5;76
79467;SHT30;68933;49.726;9.226;2023-04-01T12:22:46;12.5;76
79467;SHT30;68933;49.726;9.226;2023-04-01T12:25:00;12.5;76
79467;SHT30;68933;49.726;9.226;2023-04-01T12:27:14;12.5;76
79467;SHT30;68933;49.726;9.226;2023-04-01T12:29:35;12.5;76
79467;SHT30;68933;49.726;9.226;2023-04-01T12:31:38;12.5;75
79467;SHT30;68933;49.726;9.226;2023-04-01T12:33:52;12.5;75
79467;SHT30;68933;49.726;9.226;2023-04-01T12:36:06;12.5;76
79467;SHT30;68933;49.726;9.226;2023-04-01T12:38:19;12.5;76
79467;SHT30;68933;49.726;9.226;2023-04-01T12:40:40;12.6;76
79467;SHT30;68933;49.726;9.226;2023-04-01T12:42:51;12.6;76
79467;SHT30;68933;49.726;9.226;2023-04-01T12:44:58;12.6;76
79467;SHT30;68933;49.726;9.226;2023-04-01T12:47:13;12.7;76
79467;SHT30;68933;49.726;9.226;2023-04-01T12:49:25;12.7;76
79467;SHT30;68933;49.726;9.226;2023-04-01T12:51:36;12.8;76
79467;SHT30;68933;49.726;9.226;2023-04-01T12:53:54;12.8;76
79467;SHT30;68933;49.726;9.226;2023-04-01T12:56:01;12.8;76
79467;SHT30;68933;49.726;9.226;2023-04-01T13:00:30;12.8;76
79467;SHT30;68933;49.726;9.226;2023-04-01T13:02:41;12.8;76
79467;SHT30;68933;49.726;9.226;2023-04-01T13:04:56;12.8;76
79467;SHT30;68933;49.726;9.226;2023-04-01T13:07:13;12.7;74
79467;SHT30;68933;49.726;9.226;2023-04-01T13:09:21;12.7;74
79467;SHT30;68933;49.726;9.226;2023-04-01T13:11:34;12.8;76
79467;SHT30;68933;49.726;9.226;2023-04-01T13:13:48;12.8;76
79467;SHT30;68933;49.726;9.226;2023-04-01T13:15:57;12.8;76
79467;SHT30;68933;49.726;9.226;2023-04-01T13:18:14;12.8;76
79467;SHT30;68933;49.726;9.226;2023-04-01T13:20:26;12.8;76
79467;SHT30;68933;49.726;9.226;2023-04-01T13:22:41;12.9;76
79467;SHT30;68933;49.726;9.226;2023-04-01T13:24:50;12.9;76
79467;SHT30;68933;49.726;9.226;2023-04-01T13:27:05;12.9;74
79467;SHT30;68933;49.726;9.226;2023-04-01T13:29:16;12.9;74
79467;SHT30;68933;49.726;9.226;2023-04-01T13:31:31;12.9;74
79467;SHT30;68933;49.726;9.226;2023-04-01T13:33:42;12.9;74
79467;SHT30;68933;49.726;9.226;2023-04-01T13:35:57;13;76
79467;SHT30;68933;49.726;9.226;2023-04-01T13:38:13;13;76
79467;SHT30;68933;49.726;9.226;2023-04-01T13:40:23;13;76
79467;SHT30;68933;49.726;9.226;2023-04-01T13:42:33;13;76
79467;SHT30;68933;49.726;9.226;2023-04-01T13:44:46;13.1;74
79467;SHT30;68933;49.726;9.226;2023-04-01T13:47:03;13.1;74
79467;SHT30;68933;49.726;9.226;2023-04-01T13:49:17;13.1;74
79467;SHT30;68933;49.726;9.226;2023-04-01T13:51:30;13;74
79467;SHT30;68933;49.726;9.226;2023-04-01T13:53:43;13;74
79467;SHT30;68933;49.726;9.226;2023-04-01T13:55:53;13;74
79467;SHT30;68933;49.726;9.226;2023-04-01T13:58:08;13;74
79467;SHT30;68933;49.726;9.226;2023-04-01T14:00:27;12.9;74
79467;SHT30;68933;49.726;9.226;2023-04-01T14:02:38;12.9;74
79467;SHT30;68933;49.726;9.226;2023-04-01T14:04:47;12.9;74
79467;SHT30;68933;49.726;9.226;2023-04-01T14:06:58;12.9;74
79467;SHT30;68933;49.726;9.226;2023-04-01T14:09:29;12.9;74
79467;SHT30;68933;49.726;9.226;2023-04-01T14:11:24;12.8;74
79467;SHT30;68933;49.726;9.226;2023-04-01T14:13:37;12.8;74
79467;SHT30;68933;49.726;9.226;2023-04-01T14:15:51;12.8;76
79467;SHT30;68933;49.726;9.226;2023-04-01T14:18:07;12.8;76
79467;SHT30;68933;49.726;9.226;2023-04-01T14:20:20;12.8;76
79467;SHT30;68933;49.726;9.226;2023-04-01T14:22:29;12.7;74
79467;SHT30;68933;49.726;9.226;2023-04-01T14:24:42;12.7;74
79467;SHT30;68933;49.726;9.226;2023-04-01T14:27:00;12.6;74
79467;SHT30;68933;49.726;9.226;2023-04-01T14:29:10;12.6;74
79467;SHT30;68933;49.726;9.226;2023-04-01T14:31:23;12.6;74
79467;SHT30;68933;49.726;9.226;2023-04-01T14:33:35;12.6;76
79467;SHT30;68933;49.726;9.226;2023-04-01T14:35:46;12.6;76
79467;SHT30;68933;49.726;9.226;2023-04-01T14:38:02;12.6;76
79467;SHT30;68933;49.726;9.226;2023-04-01T14:40:16;12.6;76
79467;SHT30;68933;49.726;9.226;2023-04-01T14:42:32;12.6;76
79467;SHT30;68933;49.726;9.226;2023-04-01T14:44:44;12.6;76
79467;SHT30;68933;49.726;9.226;2023-04-01T14:47:24;12.6;76
79467;SHT30;68933;49.726;9.226;2023-04-01T14:49:04;12.7;76
79467;SHT30;68933;49.726;9.226;2023-04-01T14:51:17;12.7;76
79467;SHT30;68933;49.726;9.226;2023-04-01T14:53:30;12.6;76
79467;SHT30;68933;49.726;9.226;2023-04-01T14:55:46;12.6;76
79467;SHT30;68933;49.726;9.226;2023-04-01T14:57:59;12.6;76
79467;SHT30;68933;49.726;9.226;2023-04-01T15:00:12;12.6;76
79467;SHT30;68933;49.726;9.226;2023-04-01T15:02:33;12.6;76
79467;SHT30;68933;49.726;9.226;2023-04-01T15:04:37;12.7;76